BKP103 VTBS-VTSM
Flight info
| Callsign | BKP103 |
|---|---|
| Flight time | 0h 43m |
| Altitude | 31000 |
| Route | REGOS A464 UPNEP W33 SMU |
| Aircraft | A319/M-SDE3FGHIRWY/LB1 |
Departure
| Time | 2026-04-12 02:55 |
|---|---|
| Airport | Suvarnabhumi Airport (VTBS) |
Arrival
| Time | 2026-04-12 03:39 |
|---|---|
| Airport | Samui International Airport (VTSM) |
| Time | Latitude | Longitude | Altitude | Speed | Heading |
|---|---|---|---|---|---|
| 2026-04-12 02:22 | 13.68960 | 100.75523 | 13 ft | 0 kts | 14° |
| 2026-04-12 02:47 | 13.68940 | 100.75519 | 13 ft | 4 kts | 4° |
| 2026-04-12 02:47 | 13.68914 | 100.75521 | 14 ft | 4 kts | 340° |
| 2026-04-12 02:47 | 13.68890 | 100.75533 | 13 ft | 4 kts | 345° |
| 2026-04-12 02:47 | 13.68865 | 100.75532 | 14 ft | 4 kts | 14° |
| 2026-04-12 02:48 | 13.68839 | 100.75525 | 15 ft | 4 kts | 14° |
| 2026-04-12 02:48 | 13.68813 | 100.75518 | 15 ft | 4 kts | 14° |
| 2026-04-12 02:48 | 13.68798 | 100.75514 | 13 ft | 2 kts | 14° |
| 2026-04-12 02:48 | 13.68796 | 100.75514 | 13 ft | 0 kts | 14° |
| 2026-04-12 02:50 | 13.68797 | 100.75514 | 13 ft | 1 kts | 14° |
| 2026-04-12 02:51 | 13.68809 | 100.75517 | 13 ft | 3 kts | 14° |
| 2026-04-12 02:51 | 13.68837 | 100.75528 | 13 ft | 6 kts | 30° |
| 2026-04-12 02:51 | 13.68854 | 100.75579 | 13 ft | 10 kts | 98° |
| 2026-04-12 02:51 | 13.68836 | 100.75654 | 13 ft | 12 kts | 104° |
| 2026-04-12 02:52 | 13.68855 | 100.75726 | 13 ft | 12 kts | 32° |
| 2026-04-12 02:52 | 13.68938 | 100.75750 | 13 ft | 13 kts | 13° |
| 2026-04-12 02:52 | 13.69029 | 100.75775 | 13 ft | 14 kts | 14° |
| 2026-04-12 02:52 | 13.69128 | 100.75801 | 13 ft | 14 kts | 15° |
| 2026-04-12 02:53 | 13.69213 | 100.75828 | 13 ft | 12 kts | 33° |
| 2026-04-12 02:53 | 13.69221 | 100.75905 | 14 ft | 12 kts | 104° |
| 2026-04-12 02:53 | 13.69160 | 100.76066 | 12 ft | 13 kts | 145° |
| 2026-04-12 02:54 | 13.69068 | 100.76076 | 12 ft | 17 kts | 194° |
| 2026-04-12 02:54 | 13.68825 | 100.76014 | 15 ft | 61 kts | 194° |
| 2026-04-12 02:54 | 13.68248 | 100.75861 | 15 ft | 111 kts | 194° |
| 2026-04-12 02:54 | 13.67341 | 100.75623 | 14 ft | 157 kts | 194° |
| 2026-04-12 02:55 | 13.66248 | 100.75334 | 465 ft | 163 kts | 194° |
| 2026-04-12 02:55 | 13.65112 | 100.75127 | 996 ft | 169 kts | 179° |
| 2026-04-12 02:55 | 13.63938 | 100.75155 | 1686 ft | 172 kts | 179° |
| 2026-04-12 02:55 | 13.62737 | 100.75184 | 2223 ft | 175 kts | 179° |
| 2026-04-12 02:56 | 13.61509 | 100.75211 | 2841 ft | 176 kts | 180° |
| 2026-04-12 02:56 | 13.60274 | 100.75281 | 3386 ft | 185 kts | 171° |
| 2026-04-12 02:56 | 13.58943 | 100.75600 | 3639 ft | 209 kts | 166° |
| 2026-04-12 02:56 | 13.57457 | 100.76036 | 3959 ft | 234 kts | 164° |
| 2026-04-12 02:57 | 13.55821 | 100.76534 | 4383 ft | 257 kts | 165° |
| 2026-04-12 02:57 | 13.54067 | 100.77063 | 5105 ft | 267 kts | 164° |
| 2026-04-12 02:57 | 13.52249 | 100.77571 | 5863 ft | 274 kts | 170° |
| 2026-04-12 02:57 | 13.50361 | 100.77536 | 6607 ft | 279 kts | 191° |
| 2026-04-12 02:58 | 13.48450 | 100.77113 | 7389 ft | 282 kts | 193° |
| 2026-04-12 02:58 | 13.46524 | 100.76671 | 8149 ft | 286 kts | 193° |
| 2026-04-12 02:58 | 13.44561 | 100.76215 | 8909 ft | 290 kts | 194° |
| 2026-04-12 02:58 | 13.42579 | 100.75753 | 9670 ft | 294 kts | 194° |
| 2026-04-12 02:59 | 13.40569 | 100.75286 | 10258 ft | 303 kts | 193° |
| 2026-04-12 02:59 | 13.38435 | 100.74794 | 10438 ft | 326 kts | 193° |
| 2026-04-12 02:59 | 13.36157 | 100.74273 | 10705 ft | 342 kts | 193° |
| 2026-04-12 02:59 | 13.33838 | 100.73745 | 11203 ft | 349 kts | 193° |
| 2026-04-12 03:00 | 13.31452 | 100.73198 | 11779 ft | 354 kts | 193° |
| 2026-04-12 03:00 | 13.29037 | 100.72643 | 12368 ft | 357 kts | 192° |
| 2026-04-12 03:00 | 13.26594 | 100.72082 | 12919 ft | 363 kts | 192° |
| 2026-04-12 03:00 | 13.24114 | 100.71512 | 13474 ft | 367 kts | 192° |
| 2026-04-12 03:01 | 13.21612 | 100.70936 | 14008 ft | 370 kts | 192° |
| 2026-04-12 03:01 | 13.19083 | 100.70356 | 14499 ft | 374 kts | 192° |
| 2026-04-12 03:01 | 13.16540 | 100.69772 | 15035 ft | 376 kts | 192° |
| 2026-04-12 03:01 | 13.13978 | 100.69184 | 15572 ft | 379 kts | 192° |
| 2026-04-12 03:02 | 13.11430 | 100.68598 | 16099 ft | 381 kts | 192° |
| 2026-04-12 03:02 | 13.08835 | 100.68004 | 16638 ft | 383 kts | 191° |
| 2026-04-12 03:02 | 13.06181 | 100.67654 | 17137 ft | 386 kts | 184° |
| 2026-04-12 03:02 | 13.03489 | 100.67418 | 17658 ft | 389 kts | 184° |
| 2026-04-12 03:03 | 13.00782 | 100.67179 | 18177 ft | 392 kts | 184° |
| 2026-04-12 03:03 | 12.98051 | 100.66937 | 18627 ft | 395 kts | 184° |
| 2026-04-12 03:03 | 12.95303 | 100.66690 | 19075 ft | 398 kts | 184° |
| 2026-04-12 03:03 | 12.92542 | 100.66441 | 19569 ft | 399 kts | 184° |
| 2026-04-12 03:04 | 12.89803 | 100.66193 | 20017 ft | 402 kts | 184° |
| 2026-04-12 03:04 | 12.87015 | 100.65941 | 20477 ft | 404 kts | 184° |
| 2026-04-12 03:04 | 12.84208 | 100.65690 | 20952 ft | 406 kts | 184° |
| 2026-04-12 03:04 | 12.81390 | 100.65438 | 21385 ft | 408 kts | 184° |
| 2026-04-12 03:05 | 12.78549 | 100.65184 | 21820 ft | 411 kts | 184° |
| 2026-04-12 03:05 | 12.75693 | 100.64928 | 22262 ft | 413 kts | 184° |
| 2026-04-12 03:05 | 12.72820 | 100.64669 | 22678 ft | 416 kts | 184° |
| 2026-04-12 03:05 | 12.69932 | 100.64408 | 23087 ft | 418 kts | 184° |
| 2026-04-12 03:06 | 12.67067 | 100.64151 | 23478 ft | 420 kts | 184° |
| 2026-04-12 03:06 | 12.64149 | 100.63889 | 23805 ft | 422 kts | 184° |
| 2026-04-12 03:06 | 12.61219 | 100.63627 | 24144 ft | 424 kts | 184° |
| 2026-04-12 03:06 | 12.58277 | 100.63365 | 24478 ft | 425 kts | 184° |
| 2026-04-12 03:07 | 12.55325 | 100.63101 | 24824 ft | 427 kts | 184° |
| 2026-04-12 03:07 | 12.52363 | 100.62836 | 25158 ft | 428 kts | 184° |
| 2026-04-12 03:07 | 12.49392 | 100.62572 | 25508 ft | 429 kts | 183° |
| 2026-04-12 03:07 | 12.46419 | 100.62307 | 25839 ft | 431 kts | 184° |
| 2026-04-12 03:08 | 12.43427 | 100.62038 | 26158 ft | 432 kts | 184° |
| 2026-04-12 03:08 | 12.40426 | 100.61767 | 26492 ft | 434 kts | 184° |
| 2026-04-12 03:08 | 12.37447 | 100.61501 | 26808 ft | 435 kts | 184° |
| 2026-04-12 03:08 | 12.34422 | 100.61233 | 27127 ft | 437 kts | 184° |
| 2026-04-12 03:09 | 12.31394 | 100.60965 | 27440 ft | 439 kts | 184° |
| 2026-04-12 03:09 | 12.28349 | 100.60693 | 27763 ft | 440 kts | 184° |
| 2026-04-12 03:09 | 12.25295 | 100.60420 | 28109 ft | 441 kts | 184° |
| 2026-04-12 03:09 | 12.22231 | 100.60146 | 28395 ft | 443 kts | 184° |
| 2026-04-12 03:10 | 12.19152 | 100.59870 | 28706 ft | 445 kts | 184° |
| 2026-04-12 03:10 | 12.16059 | 100.59593 | 28981 ft | 448 kts | 184° |
| 2026-04-12 03:10 | 12.12991 | 100.59319 | 29279 ft | 449 kts | 184° |
| 2026-04-12 03:10 | 12.09875 | 100.59041 | 29604 ft | 450 kts | 184° |
| 2026-04-12 03:11 | 12.06749 | 100.58762 | 29909 ft | 451 kts | 184° |
| 2026-04-12 03:11 | 12.03616 | 100.58483 | 30173 ft | 453 kts | 184° |
| 2026-04-12 03:11 | 12.00470 | 100.58202 | 30389 ft | 455 kts | 184° |
| 2026-04-12 03:11 | 11.97305 | 100.57973 | 30618 ft | 457 kts | 182° |
| 2026-04-12 03:12 | 11.94122 | 100.57828 | 30813 ft | 459 kts | 181° |
| 2026-04-12 03:12 | 11.90983 | 100.57557 | 30897 ft | 457 kts | 190° |
| 2026-04-12 03:12 | 11.87922 | 100.56909 | 30913 ft | 443 kts | 191° |
| 2026-04-12 03:12 | 11.84941 | 100.56259 | 30916 ft | 436 kts | 191° |
| 2026-04-12 03:13 | 11.79034 | 100.54958 | 30914 ft | 434 kts | 192° |
| 2026-04-12 03:13 | 11.73130 | 100.53667 | 30916 ft | 434 kts | 191° |
| 2026-04-12 03:14 | 11.67230 | 100.52383 | 30920 ft | 433 kts | 191° |
| 2026-04-12 03:14 | 11.61379 | 100.51118 | 30922 ft | 433 kts | 191° |
| 2026-04-12 03:15 | 11.55483 | 100.49844 | 30920 ft | 433 kts | 191° |
| 2026-04-12 03:15 | 11.49591 | 100.48562 | 30920 ft | 433 kts | 191° |
| 2026-04-12 03:16 | 11.43708 | 100.47294 | 30917 ft | 432 kts | 191° |
| 2026-04-12 03:16 | 11.37854 | 100.46026 | 30734 ft | 433 kts | 191° |
| 2026-04-12 03:17 | 11.34897 | 100.45385 | 30505 ft | 433 kts | 191° |
| 2026-04-12 03:17 | 11.31960 | 100.44748 | 30278 ft | 432 kts | 191° |
| 2026-04-12 03:17 | 11.29022 | 100.44110 | 30052 ft | 431 kts | 191° |
| 2026-04-12 03:17 | 11.26094 | 100.43475 | 29796 ft | 430 kts | 191° |
| 2026-04-12 03:18 | 11.23172 | 100.42843 | 29531 ft | 429 kts | 191° |
| 2026-04-12 03:18 | 11.20262 | 100.42214 | 29269 ft | 427 kts | 191° |
| 2026-04-12 03:18 | 11.17370 | 100.41587 | 29015 ft | 425 kts | 191° |
| 2026-04-12 03:18 | 11.14537 | 100.40973 | 28662 ft | 419 kts | 191° |
| 2026-04-12 03:19 | 11.11690 | 100.40359 | 28146 ft | 417 kts | 191° |
| 2026-04-12 03:19 | 11.08861 | 100.39750 | 27657 ft | 414 kts | 191° |
| 2026-04-12 03:19 | 11.06048 | 100.39144 | 27180 ft | 412 kts | 191° |
| 2026-04-12 03:19 | 11.03252 | 100.38538 | 26714 ft | 410 kts | 191° |
| 2026-04-12 03:20 | 11.00469 | 100.37935 | 26255 ft | 408 kts | 191° |
| 2026-04-12 03:20 | 10.97702 | 100.37334 | 25799 ft | 406 kts | 191° |
| 2026-04-12 03:20 | 10.94947 | 100.36736 | 25364 ft | 404 kts | 191° |
| 2026-04-12 03:20 | 10.92237 | 100.36148 | 24935 ft | 403 kts | 191° |
| 2026-04-12 03:21 | 10.89501 | 100.35554 | 24504 ft | 401 kts | 191° |
| 2026-04-12 03:21 | 10.86780 | 100.34968 | 24075 ft | 400 kts | 191° |
| 2026-04-12 03:21 | 10.84063 | 100.34384 | 23643 ft | 398 kts | 190° |
| 2026-04-12 03:21 | 10.81355 | 100.33801 | 23160 ft | 397 kts | 191° |
| 2026-04-12 03:22 | 10.78665 | 100.33220 | 22704 ft | 393 kts | 191° |
| 2026-04-12 03:22 | 10.76001 | 100.32644 | 22270 ft | 390 kts | 191° |
| 2026-04-12 03:22 | 10.73360 | 100.32075 | 21806 ft | 387 kts | 191° |
| 2026-04-12 03:22 | 10.70774 | 100.31517 | 21356 ft | 383 kts | 191° |
| 2026-04-12 03:23 | 10.68174 | 100.30958 | 20895 ft | 381 kts | 191° |
| 2026-04-12 03:23 | 10.65590 | 100.30403 | 20430 ft | 378 kts | 191° |
| 2026-04-12 03:23 | 10.63021 | 100.29851 | 19963 ft | 376 kts | 191° |
| 2026-04-12 03:23 | 10.60464 | 100.29303 | 19494 ft | 375 kts | 191° |
| 2026-04-12 03:24 | 10.57916 | 100.28758 | 19024 ft | 373 kts | 191° |
| 2026-04-12 03:24 | 10.55377 | 100.28213 | 18548 ft | 372 kts | 191° |
| 2026-04-12 03:24 | 10.52843 | 100.27666 | 18067 ft | 371 kts | 191° |
| 2026-04-12 03:24 | 10.50322 | 100.27119 | 17555 ft | 369 kts | 191° |
| 2026-04-12 03:25 | 10.47859 | 100.26585 | 17092 ft | 366 kts | 191° |
| 2026-04-12 03:25 | 10.45378 | 100.26049 | 16626 ft | 363 kts | 191° |
| 2026-04-12 03:25 | 10.42915 | 100.25516 | 16160 ft | 361 kts | 191° |
| 2026-04-12 03:25 | 10.40468 | 100.24988 | 15698 ft | 358 kts | 191° |
| 2026-04-12 03:26 | 10.38034 | 100.24465 | 15231 ft | 357 kts | 191° |
| 2026-04-12 03:26 | 10.35613 | 100.23947 | 14770 ft | 355 kts | 191° |
| 2026-04-12 03:26 | 10.33208 | 100.23433 | 14314 ft | 353 kts | 191° |
| 2026-04-12 03:26 | 10.30809 | 100.22919 | 13856 ft | 352 kts | 191° |
| 2026-04-12 03:27 | 10.28420 | 100.22405 | 13364 ft | 350 kts | 191° |
| 2026-04-12 03:27 | 10.26079 | 100.21900 | 12908 ft | 347 kts | 191° |
| 2026-04-12 03:27 | 10.23732 | 100.21396 | 12529 ft | 342 kts | 191° |
| 2026-04-12 03:27 | 10.21413 | 100.20899 | 12081 ft | 339 kts | 191° |
| 2026-04-12 03:28 | 10.19113 | 100.20405 | 11639 ft | 337 kts | 191° |
| 2026-04-12 03:28 | 10.16827 | 100.19914 | 11192 ft | 335 kts | 191° |
| 2026-04-12 03:28 | 10.14556 | 100.19425 | 10771 ft | 333 kts | 191° |
| 2026-04-12 03:28 | 10.12293 | 100.18939 | 10342 ft | 331 kts | 191° |
| 2026-04-12 03:29 | 10.10075 | 100.18462 | 10162 ft | 318 kts | 191° |
| 2026-04-12 03:29 | 10.07986 | 100.18012 | 9955 ft | 306 kts | 191° |
| 2026-04-12 03:29 | 10.05926 | 100.17568 | 9606 ft | 300 kts | 192° |
| 2026-04-12 03:29 | 10.03896 | 100.17133 | 9185 ft | 295 kts | 191° |
| 2026-04-12 03:30 | 10.01901 | 100.16707 | 8708 ft | 292 kts | 191° |
| 2026-04-12 03:30 | 9.99920 | 100.16284 | 8227 ft | 290 kts | 191° |
| 2026-04-12 03:30 | 9.97956 | 100.15863 | 7753 ft | 287 kts | 192° |
| 2026-04-12 03:30 | 9.96010 | 100.15446 | 7292 ft | 285 kts | 191° |
| 2026-04-12 03:31 | 9.94082 | 100.15031 | 6838 ft | 282 kts | 192° |
| 2026-04-12 03:31 | 9.92196 | 100.14626 | 6401 ft | 279 kts | 192° |
| 2026-04-12 03:31 | 9.90328 | 100.14225 | 6194 ft | 267 kts | 192° |
| 2026-04-12 03:31 | 9.88552 | 100.13843 | 5976 ft | 256 kts | 192° |
| 2026-04-12 03:32 | 9.86839 | 100.13472 | 5732 ft | 247 kts | 192° |
| 2026-04-12 03:32 | 9.85180 | 100.13115 | 5405 ft | 242 kts | 191° |
| 2026-04-12 03:32 | 9.83545 | 100.12766 | 5027 ft | 239 kts | 191° |
| 2026-04-12 03:32 | 9.81924 | 100.12420 | 4607 ft | 237 kts | 191° |
| 2026-04-12 03:33 | 9.80313 | 100.12074 | 4137 ft | 236 kts | 192° |
| 2026-04-12 03:33 | 9.78746 | 100.11738 | 3818 ft | 228 kts | 192° |
| 2026-04-12 03:33 | 9.77226 | 100.11413 | 3665 ft | 218 kts | 192° |
| 2026-04-12 03:33 | 9.75773 | 100.11103 | 3502 ft | 209 kts | 192° |
| 2026-04-12 03:34 | 9.74392 | 100.10808 | 3419 ft | 195 kts | 192° |
| 2026-04-12 03:34 | 9.73110 | 100.10445 | 3327 ft | 190 kts | 203° |
| 2026-04-12 03:34 | 9.71912 | 100.09891 | 3088 ft | 188 kts | 204° |
| 2026-04-12 03:34 | 9.70726 | 100.09344 | 2884 ft | 187 kts | 204° |
| 2026-04-12 03:35 | 9.69546 | 100.08800 | 2693 ft | 186 kts | 204° |
| 2026-04-12 03:35 | 9.68388 | 100.08270 | 2505 ft | 183 kts | 205° |
| 2026-04-12 03:35 | 9.67256 | 100.07752 | 2327 ft | 174 kts | 205° |
| 2026-04-12 03:35 | 9.66172 | 100.07256 | 2156 ft | 169 kts | 205° |
| 2026-04-12 03:36 | 9.65112 | 100.06771 | 1948 ft | 166 kts | 204° |
| 2026-04-12 03:36 | 9.64093 | 100.06304 | 1748 ft | 152 kts | 205° |
| 2026-04-12 03:36 | 9.63177 | 100.05885 | 1564 ft | 140 kts | 205° |
| 2026-04-12 03:36 | 9.62279 | 100.05562 | 1391 ft | 136 kts | 187° |
| 2026-04-12 03:37 | 9.61343 | 100.05612 | 1222 ft | 134 kts | 175° |
| 2026-04-12 03:37 | 9.60431 | 100.05721 | 1006 ft | 134 kts | 173° |
| 2026-04-12 03:37 | 9.59496 | 100.05819 | 823 ft | 136 kts | 175° |
| 2026-04-12 03:37 | 9.58550 | 100.05911 | 649 ft | 138 kts | 176° |
| 2026-04-12 03:38 | 9.57587 | 100.05986 | 472 ft | 140 kts | 175° |
| 2026-04-12 03:38 | 9.56611 | 100.06073 | 311 ft | 141 kts | 175° |
| 2026-04-12 03:38 | 9.55633 | 100.06167 | 103 ft | 141 kts | 175° |
| 2026-04-12 03:38 | 9.54736 | 100.06252 | 51 ft | 104 kts | 175° |
| 2026-04-12 03:39 | 9.54314 | 100.06292 | 53 ft | 21 kts | 172° |
| 2026-04-12 03:39 | 9.54252 | 100.06296 | 53 ft | 2 kts | 291° |
| 2026-04-12 03:39 | 9.54281 | 100.06289 | 53 ft | 6 kts | 357° |
| 2026-04-12 03:39 | 9.54335 | 100.06288 | 53 ft | 9 kts | 357° |
| 2026-04-12 03:40 | 9.54408 | 100.06283 | 50 ft | 12 kts | 354° |
| 2026-04-12 03:40 | 9.54497 | 100.06274 | 53 ft | 14 kts | 354° |
| 2026-04-12 03:40 | 9.54602 | 100.06264 | 51 ft | 16 kts | 354° |
| 2026-04-12 03:40 | 9.54723 | 100.06252 | 53 ft | 19 kts | 354° |
| 2026-04-12 03:41 | 9.54843 | 100.06241 | 53 ft | 15 kts | 354° |
| 2026-04-12 03:41 | 9.54950 | 100.06230 | 53 ft | 14 kts | 354° |
| 2026-04-12 03:41 | 9.55052 | 100.06220 | 53 ft | 16 kts | 354° |
| 2026-04-12 03:41 | 9.55140 | 100.06211 | 53 ft | 10 kts | 355° |
| 2026-04-12 03:42 | 9.55189 | 100.06237 | 52 ft | 9 kts | 73° |
| 2026-04-12 03:42 | 9.55205 | 100.06285 | 53 ft | 7 kts | 34° |
| 2026-04-12 03:42 | 9.55236 | 100.06290 | 53 ft | 3 kts | 17° |
| 2026-04-12 03:42 | 9.55241 | 100.06308 | 51 ft | 3 kts | 79° |
| 2026-04-12 03:43 | 9.55242 | 100.06326 | 53 ft | 2 kts | 85° |
| 2026-04-12 03:43 | 9.55243 | 100.06327 | 53 ft | 0 kts | 85° |